Terminal Aerodrome Forecast
Issued by NWS

Home | Current Version | Previous Version | Graphics & Text | Print | Product List | Glossary On
Versions: 1 2 3 4 5 6 7 8 9 10 11 12 13 14 15 16 17 18 19 20
000
FTUS43 KMPX 282339
TAFRWF
TAF
KRWF 282339Z 2900/2924 VRB03KT 3SM BR OVC008
     FM290200 33008KT 3SM BR OVC005
     FM290400 32012G20KT 4SM BR OVC008
     FM290600 32023G32KT P6SM OVC012
     FM291400 32020G30KT P6SM BKN020
     FM291800 32017G25KT P6SM SCT025=

USA.gov is the U.S. government's official web portal to all federal, state and local government web resources and services.